sensor_id;sensor_type;location;lat;lon;timestamp;pressure;altitude;pressure_sealevel;temperature;humidity
30744;BME280;17486;46.738;7.622;2022-12-05T00:00:57;95021.94;;;5.05;65.79
30744;BME280;17486;46.738;7.622;2022-12-05T00:03:24;95065.94;;;5.27;65.55
30744;BME280;17486;46.738;7.622;2022-12-05T00:05:49;95026.28;;;5.03;66.19
30744;BME280;17486;46.738;7.622;2022-12-05T00:08:15;95069.41;;;5.26;66.03
30744;BME280;17486;46.738;7.622;2022-12-05T00:10:40;95069.50;;;5.23;66.00
30744;BME280;17486;46.738;7.622;2022-12-05T00:13:06;95019.56;;;4.98;65.96
30744;BME280;17486;46.738;7.622;2022-12-05T00:15:38;95048.66;;;5.02;66.53
30744;BME280;17486;46.738;7.622;2022-12-05T00:18:04;95077.19;;;5.24;65.71
30744;BME280;17486;46.738;7.622;2022-12-05T00:20:30;95074.56;;;5.26;66.25
30744;BME280;17486;46.738;7.622;2022-12-05T00:22:55;95042.50;;;5.06;65.77
30744;BME280;17486;46.738;7.622;2022-12-05T00:25:21;95084.00;;;5.27;65.61
30744;BME280;17486;46.738;7.622;2022-12-05T00:27:46;95082.28;;;5.26;65.66
30744;BME280;17486;46.738;7.622;2022-12-05T00:30:12;95077.28;;;5.21;65.81
30744;BME280;17486;46.738;7.622;2022-12-05T00:32:37;95051.00;;;5.10;65.89
30744;BME280;17486;46.738;7.622;2022-12-05T00:35:03;95056.09;;;5.11;66.22
30744;BME280;17486;46.738;7.622;2022-12-05T00:37:28;95081.47;;;5.24;66.35
30744;BME280;17486;46.738;7.622;2022-12-05T00:39:54;95074.66;;;5.23;66.56
30744;BME280;17486;46.738;7.622;2022-12-05T00:42:19;95035.13;;;4.95;66.18
30744;BME280;17486;46.738;7.622;2022-12-05T00:44:44;95078.97;;;5.22;66.29
30744;BME280;17486;46.738;7.622;2022-12-05T00:47:10;95084.13;;;5.22;66.86
30744;BME280;17486;46.738;7.622;2022-12-05T00:49:35;95065.59;;;5.09;66.22
30744;BME280;17486;46.738;7.622;2022-12-05T00:52:01;95074.66;;;5.23;66.73
30744;BME280;17486;46.738;7.622;2022-12-05T00:54:26;95035.03;;;4.98;66.92
30744;BME280;17486;46.738;7.622;2022-12-05T00:56:51;95083.22;;;5.23;66.35
30744;BME280;17486;46.738;7.622;2022-12-05T00:59:20;95084.97;;;5.23;66.75
30744;BME280;17486;46.738;7.622;2022-12-05T01:01:47;95098.81;;;5.19;66.52
30744;BME280;17486;46.738;7.622;2022-12-05T01:04:16;95086.00;;;5.17;67.00
30744;BME280;17486;46.738;7.622;2022-12-05T01:06:42;95055.78;;;4.94;66.86
30744;BME280;17486;46.738;7.622;2022-12-05T01:09:10;95089.56;;;5.13;67.25
30744;BME280;17486;46.738;7.622;2022-12-05T01:11:36;95085.41;;;5.09;67.21
30744;BME280;17486;46.738;7.622;2022-12-05T01:14:02;95058.56;;;4.88;67.31
30744;BME280;17486;46.738;7.622;2022-12-05T01:16:31;95067.34;;;4.80;67.39
30744;BME280;17486;46.738;7.622;2022-12-05T01:18:59;95077.75;;;4.77;67.37
30744;BME280;17486;46.738;7.622;2022-12-05T01:21:25;95106.28;;;5.00;68.04
30744;BME280;17486;46.738;7.622;2022-12-05T01:23:50;95117.38;;;5.02;67.59
30744;BME280;17486;46.738;7.622;2022-12-05T01:26:18;95083.50;;;4.86;68.03
30744;BME280;17486;46.738;7.622;2022-12-05T01:28:44;95065.69;;;4.79;67.97
30744;BME280;17486;46.738;7.622;2022-12-05T01:31:21;95073.31;;;4.82;67.83
30744;BME280;17486;46.738;7.622;2022-12-05T01:33:47;95070.63;;;4.86;67.86
30744;BME280;17486;46.738;7.622;2022-12-05T01:36:13;95070.56;;;4.89;67.69
30744;BME280;17486;46.738;7.622;2022-12-05T01:38:40;95115.44;;;5.10;67.57
30744;BME280;17486;46.738;7.622;2022-12-05T01:41:07;95079.81;;;4.94;67.68
30744;BME280;17486;46.738;7.622;2022-12-05T01:44:01;95100.91;;;5.07;67.89
30744;BME280;17486;46.738;7.622;2022-12-05T01:46:28;95095.13;;;4.99;67.53
30744;BME280;17486;46.738;7.622;2022-12-05T01:49:16;95106.13;;;5.06;67.62
30744;BME280;17486;46.738;7.622;2022-12-05T01:51:47;95127.44;;;5.11;67.75
30744;BME280;17486;46.738;7.622;2022-12-05T01:54:15;95133.34;;;5.14;67.97
30744;BME280;17486;46.738;7.622;2022-12-05T01:56:44;95135.03;;;5.15;67.51
30744;BME280;17486;46.738;7.622;2022-12-05T01:59:11;95127.34;;;5.14;67.97
30744;BME280;17486;46.738;7.622;2022-12-05T02:01:37;95117.16;;;5.09;68.01
30744;BME280;17486;46.738;7.622;2022-12-05T02:04:03;95133.34;;;5.14;67.74
30744;BME280;17486;46.738;7.622;2022-12-05T02:06:31;95128.19;;;5.14;67.75
30744;BME280;17486;46.738;7.622;2022-12-05T02:08:57;95091.88;;;4.94;67.90
30744;BME280;17486;46.738;7.622;2022-12-05T02:11:24;95133.53;;;5.08;68.02
30744;BME280;17486;46.738;7.622;2022-12-05T02:17:06;95127.94;;;4.94;68.10
30744;BME280;17486;46.738;7.622;2022-12-05T02:19:59;95135.75;;;4.91;69.18
30744;BME280;17486;46.738;7.622;2022-12-05T02:30:25;95120.22;;;4.94;69.62
30744;BME280;17486;46.738;7.622;2022-12-05T02:33:09;95133.88;;;4.96;69.24
30744;BME280;17486;46.738;7.622;2022-12-05T02:38:29;95130.25;;;5.03;69.15
30744;BME280;17486;46.738;7.622;2022-12-05T02:41:39;95137.84;;;5.08;68.73
30744;BME280;17486;46.738;7.622;2022-12-05T02:46:20;95097.25;;;4.86;69.20
30744;BME280;17486;46.738;7.622;2022-12-05T02:48:48;95127.63;;;5.05;69.13
30744;BME280;17486;46.738;7.622;2022-12-05T02:51:18;95141.22;;;5.10;68.78
30744;BME280;17486;46.738;7.622;2022-12-05T02:53:47;95137.75;;;5.11;68.96
30744;BME280;17486;46.738;7.622;2022-12-05T02:56:14;95150.59;;;5.12;68.86
30744;BME280;17486;46.738;7.622;2022-12-05T02:58:50;95142.06;;;5.10;68.71
30744;BME280;17486;46.738;7.622;2022-12-05T03:01:18;95138.78;;;5.05;68.99
30744;BME280;17486;46.738;7.622;2022-12-05T03:03:44;95146.66;;;4.99;69.11
30744;BME280;17486;46.738;7.622;2022-12-05T03:06:13;95136.56;;;4.93;69.35
30744;BME280;17486;46.738;7.622;2022-12-05T03:08:43;95142.59;;;4.92;69.42
30744;BME280;17486;46.738;7.622;2022-12-05T03:11:11;95152.75;;;4.98;69.64
30744;BME280;17486;46.738;7.622;2022-12-05T03:13:44;95159.66;;;4.96;69.29
30744;BME280;17486;46.738;7.622;2022-12-05T03:16:25;95151.16;;;4.94;69.21
30744;BME280;17486;46.738;7.622;2022-12-05T03:18:59;95140.06;;;4.90;69.15
30744;BME280;17486;46.738;7.622;2022-12-05T03:24:01;95100.13;;;4.75;69.55
30744;BME280;17486;46.738;7.622;2022-12-05T03:26:39;95145.00;;;4.98;69.31
30744;BME280;17486;46.738;7.622;2022-12-05T03:37:40;95132.84;;;5.02;69.49
30744;BME280;17486;46.738;7.622;2022-12-05T03:43:03;95119.25;;;4.96;68.83
30744;BME280;17486;46.738;7.622;2022-12-05T03:46:10;95131.31;;;4.96;69.39
30744;BME280;17486;46.738;7.622;2022-12-05T03:51:03;95139.88;;;4.96;69.14
30744;BME280;17486;46.738;7.622;2022-12-05T03:53:51;95127.03;;;4.95;69.27
30744;BME280;17486;46.738;7.622;2022-12-05T03:56:24;95094.03;;;4.78;69.63
30744;BME280;17486;46.738;7.622;2022-12-05T04:01:41;95138.25;;;4.94;69.34
30744;BME280;17486;46.738;7.622;2022-12-05T04:04:13;95134.88;;;4.92;69.65
30744;BME280;17486;46.738;7.622;2022-12-05T04:06:42;95135.69;;;4.94;69.33
30744;BME280;17486;46.738;7.622;2022-12-05T04:09:13;95138.94;;;4.99;69.66
30744;BME280;17486;46.738;7.622;2022-12-05T04:11:44;95137.28;;;4.98;69.21
30744;BME280;17486;46.738;7.622;2022-12-05T04:14:33;95134.69;;;4.98;69.87
30744;BME280;17486;46.738;7.622;2022-12-05T04:17:05;95158.44;;;5.08;69.41
30744;BME280;17486;46.738;7.622;2022-12-05T04:22:43;95173.84;;;5.11;69.27
30744;BME280;17486;46.738;7.622;2022-12-05T04:25:10;95166.19;;;5.08;69.76
30744;BME280;17486;46.738;7.622;2022-12-05T04:30:47;95152.09;;;4.90;69.34
30744;BME280;17486;46.738;7.622;2022-12-05T04:33:38;95185.09;;;5.08;69.34
30744;BME280;17486;46.738;7.622;2022-12-05T04:36:24;95191.03;;;5.10;69.14
30744;BME280;17486;46.738;7.622;2022-12-05T04:38:59;95194.50;;;5.09;69.44
30744;BME280;17486;46.738;7.622;2022-12-05T04:41:42;95176.72;;;5.00;69.64
30744;BME280;17486;46.738;7.622;2022-12-05T04:44:11;95187.56;;;5.11;69.37
30744;BME280;17486;46.738;7.622;2022-12-05T04:46:40;95150.44;;;4.89;68.91
30744;BME280;17486;46.738;7.622;2022-12-05T04:49:11;95131.03;;;4.75;69.58
30744;BME280;17486;46.738;7.622;2022-12-05T04:51:39;95134.44;;;4.77;69.50
30744;BME280;17486;46.738;7.622;2022-12-05T04:54:15;95173.44;;;4.95;69.73
30744;BME280;17486;46.738;7.622;2022-12-05T04:56:44;95164.91;;;4.93;69.46
30744;BME280;17486;46.738;7.622;2022-12-05T04:59:11;95174.25;;;4.97;69.83
30744;BME280;17486;46.738;7.622;2022-12-05T05:01:40;95131.97;;;4.73;69.76
30744;BME280;17486;46.738;7.622;2022-12-05T05:04:14;95173.25;;;5.01;69.68
30744;BME280;17486;46.738;7.622;2022-12-05T05:06:42;95144.56;;;4.84;69.86
30744;BME280;17486;46.738;7.622;2022-12-05T05:09:09;95143.75;;;4.81;69.83
30744;BME280;17486;46.738;7.622;2022-12-05T05:11:35;95141.13;;;4.83;69.68
30744;BME280;17486;46.738;7.622;2022-12-05T05:14:01;95152.91;;;4.92;69.53
30744;BME280;17486;46.738;7.622;2022-12-05T05:16:29;95188.63;;;5.04;69.69
30744;BME280;17486;46.738;7.622;2022-12-05T05:18:55;95190.31;;;5.05;69.74
30744;BME280;17486;46.738;7.622;2022-12-05T05:21:26;95170.91;;;4.93;69.80
30744;BME280;17486;46.738;7.622;2022-12-05T05:23:53;95166.69;;;4.91;69.57
30744;BME280;17486;46.738;7.622;2022-12-05T05:26:19;95191.19;;;5.06;69.39
30744;BME280;17486;46.738;7.622;2022-12-05T05:28:45;95184.53;;;4.97;69.57
30744;BME280;17486;46.738;7.622;2022-12-05T05:31:12;95212.63;;;5.06;69.52
30744;BME280;17486;46.738;7.622;2022-12-05T05:33:38;95172.00;;;4.85;70.14
30744;BME280;17486;46.738;7.622;2022-12-05T05:36:05;95190.38;;;5.04;69.94
30744;BME280;17486;46.738;7.622;2022-12-05T05:38:35;95188.78;;;5.00;69.96
30744;BME280;17486;46.738;7.622;2022-12-05T05:41:01;95209.03;;;5.12;70.15
30744;BME280;17486;46.738;7.622;2022-12-05T05:43:26;95172.84;;;4.85;69.50
30744;BME280;17486;46.738;7.622;2022-12-05T05:45:52;95177.97;;;4.87;70.06
30744;BME280;17486;46.738;7.622;2022-12-05T05:48:17;95221.09;;;5.11;69.89
30744;BME280;17486;46.738;7.622;2022-12-05T05:50:43;95192.38;;;4.94;70.33
30744;BME280;17486;46.738;7.622;2022-12-05T05:53:08;95192.38;;;4.94;70.30
30744;BME280;17486;46.738;7.622;2022-12-05T05:55:33;95226.13;;;5.14;69.73
30744;BME280;17486;46.738;7.622;2022-12-05T05:57:59;95233.00;;;5.15;70.28
30744;BME280;17486;46.738;7.622;2022-12-05T06:00:24;95216.97;;;5.04;69.66
30744;BME280;17486;46.738;7.622;2022-12-05T06:02:49;95233.00;;;5.15;70.36
30744;BME280;17486;46.738;7.622;2022-12-05T06:05:15;95228.75;;;5.13;69.77
30744;BME280;17486;46.738;7.622;2022-12-05T06:07:40;95228.91;;;5.08;70.50
30744;BME280;17486;46.738;7.622;2022-12-05T06:10:06;95241.00;;;5.06;70.16
30744;BME280;17486;46.738;7.622;2022-12-05T06:12:32;95233.63;;;4.94;69.73
30744;BME280;17486;46.738;7.622;2022-12-05T06:14:58;95256.34;;;5.11;69.97
30744;BME280;17486;46.738;7.622;2022-12-05T06:17:23;95263.16;;;5.12;70.05
30744;BME280;17486;46.738;7.622;2022-12-05T06:19:49;95232.59;;;5.00;69.79
30744;BME280;17486;46.738;7.622;2022-12-05T06:22:14;95255.38;;;5.13;69.90
30744;BME280;17486;46.738;7.622;2022-12-05T06:24:39;95260.41;;;5.18;69.70
30744;BME280;17486;46.738;7.622;2022-12-05T06:27:05;95264.81;;;5.14;69.85
30744;BME280;17486;46.738;7.622;2022-12-05T06:29:30;95246.41;;;4.97;69.71
30744;BME280;17486;46.738;7.622;2022-12-05T06:31:56;95279.28;;;5.19;69.77
30744;BME280;17486;46.738;7.622;2022-12-05T06:34:21;95270.78;;;5.17;70.33
30744;BME280;17486;46.738;7.622;2022-12-05T06:36:46;95274.97;;;5.21;70.30
30744;BME280;17486;46.738;7.622;2022-12-05T06:39:12;95241.25;;;4.97;69.70
30744;BME280;17486;46.738;7.622;2022-12-05T06:41:37;95281.81;;;5.22;69.94
30744;BME280;17486;46.738;7.622;2022-12-05T06:44:03;95277.50;;;5.22;69.83
30744;BME280;17486;46.738;7.622;2022-12-05T06:46:29;95281.09;;;5.17;70.32
30744;BME280;17486;46.738;7.622;2022-12-05T06:48:56;95233.50;;;4.97;70.29
30744;BME280;17486;46.738;7.622;2022-12-05T06:51:22;95285.22;;;5.22;70.61
30744;BME280;17486;46.738;7.622;2022-12-05T06:53:48;95253.88;;;5.06;70.45
30744;BME280;17486;46.738;7.622;2022-12-05T06:56:16;95301.56;;;5.23;70.22
30744;BME280;17486;46.738;7.622;2022-12-05T06:58:43;95301.56;;;5.23;70.59
30744;BME280;17486;46.738;7.622;2022-12-05T07:01:14;95311.16;;;5.18;70.40
30744;BME280;17486;46.738;7.622;2022-12-05T07:03:59;95297.34;;;5.19;70.46
30744;BME280;17486;46.738;7.622;2022-12-05T07:06:25;95297.13;;;5.26;69.93
30744;BME280;17486;46.738;7.622;2022-12-05T07:08:51;95253.91;;;5.05;70.55
30744;BME280;17486;46.738;7.622;2022-12-05T07:11:16;95287.50;;;5.33;70.01
30744;BME280;17486;46.738;7.622;2022-12-05T07:13:42;95257.22;;;5.10;70.53
30744;BME280;17486;46.738;7.622;2022-12-05T07:16:07;95299.34;;;5.40;70.51
30744;BME280;17486;46.738;7.622;2022-12-05T07:18:34;95302.72;;;5.42;70.20
30744;BME280;17486;46.738;7.622;2022-12-05T07:21:01;95261.22;;;5.20;70.36
30744;BME280;17486;46.738;7.622;2022-12-05T07:23:27;95301.81;;;5.43;70.53
30744;BME280;17486;46.738;7.622;2022-12-05T07:25:53;95308.78;;;5.41;70.51
30744;BME280;17486;46.738;7.622;2022-12-05T07:28:19;95324.09;;;5.46;69.72
30744;BME280;17486;46.738;7.622;2022-12-05T07:30:44;95308.66;;;5.44;69.80
30744;BME280;17486;46.738;7.622;2022-12-05T07:33:10;95301.91;;;5.40;69.86
30744;BME280;17486;46.738;7.622;2022-12-05T07:35:35;95303.66;;;5.40;69.90
30744;BME280;17486;46.738;7.622;2022-12-05T07:38:01;95313.06;;;5.41;70.08
30744;BME280;17486;46.738;7.622;2022-12-05T07:40:26;95313.03;;;5.42;70.42
30744;BME280;17486;46.738;7.622;2022-12-05T07:42:52;95315.63;;;5.42;69.69
30744;BME280;17486;46.738;7.622;2022-12-05T07:45:18;95332.03;;;5.40;70.06
30744;BME280;17486;46.738;7.622;2022-12-05T07:47:44;95326.88;;;5.38;70.30
30744;BME280;17486;46.738;7.622;2022-12-05T07:50:09;95345.75;;;5.40;70.15
30744;BME280;17486;46.738;7.622;2022-12-05T07:52:35;95310.22;;;5.19;70.09
30744;BME280;17486;46.738;7.622;2022-12-05T07:55:00;95308.56;;;5.18;69.90
30744;BME280;17486;46.738;7.622;2022-12-05T07:57:29;95304.34;;;5.13;70.17
30744;BME280;17486;46.738;7.622;2022-12-05T07:59:54;95297.53;;;5.12;69.99
30744;BME280;17486;46.738;7.622;2022-12-05T08:02:20;95327.72;;;5.40;69.99
30744;BME280;17486;46.738;7.622;2022-12-05T08:04:45;95287.91;;;5.19;69.98
30744;BME280;17486;46.738;7.622;2022-12-05T08:07:11;95334.59;;;5.40;70.06
30744;BME280;17486;46.738;7.622;2022-12-05T08:09:37;95335.44;;;5.40;70.37
30744;BME280;17486;46.738;7.622;2022-12-05T08:12:03;95348.28;;;5.42;70.75
30744;BME280;17486;46.738;7.622;2022-12-05T08:14:28;95309.25;;;5.24;70.15
30744;BME280;17486;46.738;7.622;2022-12-05T08:16:53;95296.41;;;5.23;70.43
30744;BME280;17486;46.738;7.622;2022-12-05T08:19:19;95336.22;;;5.44;70.07
30744;BME280;17486;46.738;7.622;2022-12-05T08:21:45;95310.94;;;5.24;70.40
30744;BME280;17486;46.738;7.622;2022-12-05T08:24:10;95315.31;;;5.22;70.85
30744;BME280;17486;46.738;7.622;2022-12-05T08:26:37;95361.13;;;5.43;70.20
30744;BME280;17486;46.738;7.622;2022-12-05T08:29:08;95347.72;;;5.30;70.80
30744;BME280;17486;46.738;7.622;2022-12-05T08:31:38;95329.97;;;5.20;70.44
30744;BME280;17486;46.738;7.622;2022-12-05T08:34:04;95369.78;;;5.42;70.49
30744;BME280;17486;46.738;7.622;2022-12-05T08:36:30;95392.03;;;5.46;69.91
30744;BME280;17486;46.738;7.622;2022-12-05T08:38:59;95353.84;;;5.26;70.37
30744;BME280;17486;46.738;7.622;2022-12-05T08:41:25;95358.09;;;5.29;70.42
30744;BME280;17486;46.738;7.622;2022-12-05T08:43:56;95389.50;;;5.43;70.58
30744;BME280;17486;46.738;7.622;2022-12-05T08:46:22;95355.59;;;5.26;70.47
30744;BME280;17486;46.738;7.622;2022-12-05T08:48:48;95388.53;;;5.47;70.80
30744;BME280;17486;46.738;7.622;2022-12-05T08:51:13;95394.56;;;5.48;70.09
30744;BME280;17486;46.738;7.622;2022-12-05T08:53:39;95354.78;;;5.25;70.11
30744;BME280;17486;46.738;7.622;2022-12-05T08:56:07;95385.16;;;5.45;70.29
30744;BME280;17486;46.738;7.622;2022-12-05T08:58:33;95365.72;;;5.34;70.84
30744;BME280;17486;46.738;7.622;2022-12-05T09:01:10;95392.81;;;5.48;70.37
30744;BME280;17486;46.738;7.622;2022-12-05T09:03:36;95391.94;;;5.50;70.57
30744;BME280;17486;46.738;7.622;2022-12-05T09:06:10;95393.69;;;5.47;70.45
30744;BME280;17486;46.738;7.622;2022-12-05T09:08:36;95361.69;;;5.23;70.41
30744;BME280;17486;46.738;7.622;2022-12-05T09:13:38;95371.97;;;5.25;70.00
30744;BME280;17486;46.738;7.622;2022-12-05T09:16:08;95399.81;;;5.43;70.72
30744;BME280;17486;46.738;7.622;2022-12-05T09:18:34;95371.81;;;5.31;70.72
30744;BME280;17486;46.738;7.622;2022-12-05T09:21:16;95377.84;;;5.30;70.25
30744;BME280;17486;46.738;7.622;2022-12-05T09:23:43;95409.00;;;5.54;70.60
30744;BME280;17486;46.738;7.622;2022-12-05T09:26:12;95383.63;;;5.38;70.78
30744;BME280;17486;46.738;7.622;2022-12-05T09:28:38;95373.31;;;5.38;70.12
30744;BME280;17486;46.738;7.622;2022-12-05T09:31:06;95408.91;;;5.58;70.61
30744;BME280;17486;46.738;7.622;2022-12-05T09:33:34;95425.84;;;5.67;70.15
30744;BME280;17486;46.738;7.622;2022-12-05T09:36:10;95383.38;;;5.47;70.15
30744;BME280;17486;46.738;7.622;2022-12-05T09:38:35;95421.41;;;5.72;70.18
30744;BME280;17486;46.738;7.622;2022-12-05T09:41:13;95422.22;;;5.74;69.48
30744;BME280;17486;46.738;7.622;2022-12-05T09:44:02;95414.31;;;5.80;69.94
30744;BME280;17486;46.738;7.622;2022-12-05T09:46:47;95427.03;;;5.87;70.01
30744;BME280;17486;46.738;7.622;2022-12-05T09:49:16;95408.94;;;5.88;70.13
30744;BME280;17486;46.738;7.622;2022-12-05T09:51:44;95420.81;;;5.94;70.00
30744;BME280;17486;46.738;7.622;2022-12-05T09:54:12;95381.72;;;5.76;70.23
30744;BME280;17486;46.738;7.622;2022-12-05T09:56:37;95419.75;;;6.01;69.78
30744;BME280;17486;46.738;7.622;2022-12-05T09:59:12;95411.22;;;5.99;69.14
30744;BME280;17486;46.738;7.622;2022-12-05T10:18:03;95419.56;;;6.37;69.27
30744;BME280;17486;46.738;7.622;2022-12-05T10:20:46;95419.41;;;6.43;69.07
30744;BME280;17486;46.738;7.622;2022-12-05T10:23:34;95438.19;;;6.49;68.45
30744;BME280;17486;46.738;7.622;2022-12-05T10:26:04;95423.41;;;6.54;68.78
30744;BME280;17486;46.738;7.622;2022-12-05T10:28:38;95382.59;;;6.35;69.11
30744;BME280;17486;46.738;7.622;2022-12-05T10:31:12;95386.81;;;6.38;69.01
30744;BME280;17486;46.738;7.622;2022-12-05T10:33:45;95418.72;;;6.65;69.09
30744;BME280;17486;46.738;7.622;2022-12-05T10:36:13;95382.13;;;6.51;67.95
30744;BME280;17486;46.738;7.622;2022-12-05T10:38:41;95424.41;;;6.76;68.52
30744;BME280;17486;46.738;7.622;2022-12-05T10:41:09;95386.13;;;6.61;68.15
30744;BME280;17486;46.738;7.622;2022-12-05T10:43:37;95426.75;;;6.84;68.05
30744;BME280;17486;46.738;7.622;2022-12-05T10:46:04;95416.28;;;6.87;67.71
30744;BME280;17486;46.738;7.622;2022-12-05T10:48:34;95370.72;;;6.58;68.04
30744;BME280;17486;46.738;7.622;2022-12-05T10:51:01;95417.16;;;6.88;68.17
30744;BME280;17486;46.738;7.622;2022-12-05T10:53:38;95385.13;;;6.65;68.16
30744;BME280;17486;46.738;7.622;2022-12-05T10:59:03;95376.53;;;6.64;67.92
30744;BME280;17486;46.738;7.622;2022-12-05T11:01:28;95424.22;;;6.83;67.68
30744;BME280;17486;46.738;7.622;2022-12-05T11:03:59;95421.63;;;6.83;67.84
30744;BME280;17486;46.738;7.622;2022-12-05T11:06:30;95419.31;;;6.73;67.08
30744;BME280;17486;46.738;7.622;2022-12-05T11:09:15;95408.97;;;6.73;67.05
30744;BME280;17486;46.738;7.622;2022-12-05T11:11:55;95374.97;;;6.59;67.07
30744;BME280;17486;46.738;7.622;2022-12-05T11:14:24;95368.22;;;6.55;67.32
30744;BME280;17486;46.738;7.622;2022-12-05T11:16:52;95372.38;;;6.59;66.90
30744;BME280;17486;46.738;7.622;2022-12-05T11:19:33;95357.00;;;6.56;67.07
30744;BME280;17486;46.738;7.622;2022-12-05T11:21:59;95400.13;;;6.80;67.11
30744;BME280;17486;46.738;7.622;2022-12-05T11:26:57;95391.50;;;6.82;67.79
30744;BME280;17486;46.738;7.622;2022-12-05T11:29:52;95400.78;;;6.87;67.95
30744;BME280;17486;46.738;7.622;2022-12-05T11:32:23;95395.47;;;6.92;67.47
30744;BME280;17486;46.738;7.622;2022-12-05T11:34:57;95400.47;;;6.96;67.69
30744;BME280;17486;46.738;7.622;2022-12-05T11:40:04;95385.41;;;7.09;67.50
30744;BME280;17486;46.738;7.622;2022-12-05T11:50:49;95386.22;;;7.11;67.43
30744;BME280;17486;46.738;7.622;2022-12-05T11:53:36;95373.28;;;7.11;67.16
30744;BME280;17486;46.738;7.622;2022-12-05T12:06:33;95325.25;;;7.04;66.33
30744;BME280;17486;46.738;7.622;2022-12-05T12:09:24;95375.00;;;7.36;66.74
30744;BME280;17486;46.738;7.622;2022-12-05T12:12:17;95367.91;;;7.41;66.43
30744;BME280;17486;46.738;7.622;2022-12-05T12:14:54;95364.28;;;7.47;66.47
30744;BME280;17486;46.738;7.622;2022-12-05T12:26:10;95330.28;;;7.33;65.62
30744;BME280;17486;46.738;7.622;2022-12-05T12:37:01;95372.78;;;7.51;64.62
30744;BME280;17486;46.738;7.622;2022-12-05T12:42:53;95365.19;;;7.46;64.70
30744;BME280;17486;46.738;7.622;2022-12-05T12:48:26;95348.69;;;7.49;64.74
30744;BME280;17486;46.738;7.622;2022-12-05T12:50:59;95375.25;;;7.54;64.34
30744;BME280;17486;46.738;7.622;2022-12-05T12:56:17;95360.81;;;7.48;64.20
30744;BME280;17486;46.738;7.622;2022-12-05T13:01:23;95338.78;;;7.36;64.37
30744;BME280;17486;46.738;7.622;2022-12-05T13:03:53;95382.13;;;7.55;64.51
30744;BME280;17486;46.738;7.622;2022-12-05T13:07:07;95358.72;;;7.58;64.19
30744;BME280;17486;46.738;7.622;2022-12-05T13:09:42;95329.16;;;7.40;64.52
30744;BME280;17486;46.738;7.622;2022-12-05T13:12:12;95326.50;;;7.41;64.13
30744;BME280;17486;46.738;7.622;2022-12-05T13:14:44;95342.50;;;7.53;64.41
30744;BME280;17486;46.738;7.622;2022-12-05T13:17:18;95329.69;;;7.50;64.06
30744;BME280;17486;46.738;7.622;2022-12-05T13:19:47;95365.25;;;7.68;63.89
30744;BME280;17486;46.738;7.622;2022-12-05T13:22:15;95369.47;;;7.71;63.77
30744;BME280;17486;46.738;7.622;2022-12-05T13:24:42;95331.38;;;7.51;63.85
30744;BME280;17486;46.738;7.622;2022-12-05T13:27:12;95328.81;;;7.51;63.83
30744;BME280;17486;46.738;7.622;2022-12-05T13:32:33;95324.59;;;7.48;63.61
30744;BME280;17486;46.738;7.622;2022-12-05T13:35:49;95328.00;;;7.49;63.61
30744;BME280;17486;46.738;7.622;2022-12-05T13:38:21;95339.66;;;7.60;63.32
30744;BME280;17486;46.738;7.622;2022-12-05T13:41:06;95323.72;;;7.47;63.43
30744;BME280;17486;46.738;7.622;2022-12-05T13:43:51;95355.91;;;7.64;63.14
30744;BME280;17486;46.738;7.622;2022-12-05T13:46:29;95332.38;;;7.46;63.17
30744;BME280;17486;46.738;7.622;2022-12-05T13:49:03;95334.94;;;7.48;63.44
30744;BME280;17486;46.738;7.622;2022-12-05T13:51:32;95363.97;;;7.56;62.77
30744;BME280;17486;46.738;7.622;2022-12-05T13:54:10;95320.56;;;7.39;63.20
30744;BME280;17486;46.738;7.622;2022-12-05T13:56:53;95322.34;;;7.37;63.32
30744;BME280;17486;46.738;7.622;2022-12-05T13:59:57;95361.31;;;7.58;63.03
30744;BME280;17486;46.738;7.622;2022-12-05T14:07:48;95367.50;;;7.54;62.93
30744;BME280;17486;46.738;7.622;2022-12-05T14:10:19;95370.97;;;7.53;62.95
30744;BME280;17486;46.738;7.622;2022-12-05T14:12:52;95370.97;;;7.53;63.10
30744;BME280;17486;46.738;7.622;2022-12-05T14:15:32;95362.44;;;7.51;63.13
30744;BME280;17486;46.738;7.622;2022-12-05T14:39:36;95355.44;;;7.29;63.36
30744;BME280;17486;46.738;7.622;2022-12-05T14:42:16;95371.00;;;7.27;63.03
30744;BME280;17486;46.738;7.622;2022-12-05T14:44:46;95339.81;;;7.07;63.28
30744;BME280;17486;46.738;7.622;2022-12-05T14:47:20;95338.09;;;7.06;63.51
30744;BME280;17486;46.738;7.622;2022-12-05T14:52:36;95382.38;;;7.22;63.62
30744;BME280;17486;46.738;7.622;2022-12-05T14:55:11;95345.19;;;7.01;63.65
30744;BME280;17486;46.738;7.622;2022-12-05T14:57:46;95369.81;;;7.11;63.89
30744;BME280;17486;46.738;7.622;2022-12-05T15:00:21;95381.72;;;7.17;63.98
30744;BME280;17486;46.738;7.622;2022-12-05T15:02:50;95379.16;;;7.15;64.02
30744;BME280;17486;46.738;7.622;2022-12-05T15:05:29;95381.13;;;7.08;64.48
30744;BME280;17486;46.738;7.622;2022-12-05T15:07:57;95383.63;;;7.11;63.74
30744;BME280;17486;46.738;7.622;2022-12-05T15:10:30;95371.53;;;7.12;64.44
30744;BME280;17486;46.738;7.622;2022-12-05T15:12:59;95382.88;;;7.08;63.83
30744;BME280;17486;46.738;7.622;2022-12-05T15:18:26;95386.28;;;7.08;64.50
30744;BME280;17486;46.738;7.622;2022-12-05T15:21:08;95375.25;;;7.03;64.46
30744;BME280;17486;46.738;7.622;2022-12-05T15:31:49;95384.78;;;7.03;65.13
30744;BME280;17486;46.738;7.622;2022-12-05T15:39:55;95384.13;;;6.96;65.42
30744;BME280;17486;46.738;7.622;2022-12-05T15:42:27;95387.59;;;6.95;65.01
30744;BME280;17486;46.738;7.622;2022-12-05T15:45:10;95385.03;;;6.95;65.42
30744;BME280;17486;46.738;7.622;2022-12-05T15:50:47;95377.47;;;6.89;64.82
30744;BME280;17486;46.738;7.622;2022-12-05T15:53:34;95400.66;;;6.92;64.76
30744;BME280;17486;46.738;7.622;2022-12-05T15:59:19;95397.38;;;6.87;65.43
30744;BME280;17486;46.738;7.622;2022-12-05T16:02:03;95356.00;;;6.60;65.37
30744;BME280;17486;46.738;7.622;2022-12-05T16:04:39;95398.44;;;6.79;65.54
30744;BME280;17486;46.738;7.622;2022-12-05T16:07:08;95397.50;;;6.82;65.80
30744;BME280;17486;46.738;7.622;2022-12-05T16:09:39;95402.03;;;6.75;66.01
30744;BME280;17486;46.738;7.622;2022-12-05T16:12:16;95379.94;;;6.65;65.62
30744;BME280;17486;46.738;7.622;2022-12-05T16:14:48;95374.97;;;6.59;65.37
30744;BME280;17486;46.738;7.622;2022-12-05T16:17:15;95367.31;;;6.56;65.69
30744;BME280;17486;46.738;7.622;2022-12-05T16:19:41;95372.38;;;6.60;65.70